Hovedside
METAR-TAF:

METAR-TAF

Lufthavner :

Tunis, Tunisia

breddegrad: 36-50N, lengdegrad: 010-14E, høyde over havet: 3 m

Gjeldene værobservasjon

Denne rapporten ble laget for 25 minutter siden, klokken 17:30 UTC
Vind 14 kt fra Nord-nordvest
Temperatur 29°C
Luftfuktighet 35%
Trykk 1013 hPa
Sikt 10 km eller mer
Få skyer i en høyde av 2600 ft

METAR: DTTA 231730Z 33014KT 9999 FEW026 29/12 Q1013 NOSIG

Tid: 18:55 (17:55 UTC)

Varsel

Denne rapporten ble laget for 55 minutter siden, klokken 17:00 UTC
Varsel gyldig fra 23. klokken 18 UTC til 24. klokken 18 UTC
Vind 15 kt fra Nord-nordvest
Sikt 10 km eller mer
ingen skyer under 1500 m og ingen bygeskyer
Blir
fra 23. klokken 20 UTC til 23. klokken 22 UTC
Vind 5 kt fra skiftende retning

TAF: DTTA 231700Z 2318/2418 33015KT CAVOK BECMG 2320/2322 VRB05KT

Værobservasjoner og værvarsel for over 4000 flyplasser (METAR- og TAF-rapporter).

Tilgjengelige stasjoner er representert av de røde og gule prikkene på kartet.

Hold musepekeren over prikken for å se navnet på stasjonen.

Klikk så for å se værobservasjoner og -varsler.

For å forandre kartet kan du klikke på den grønne knappen med svart kryss for å zoome inn, på den grønne knappen med strek for å zoome ut, eller på de grønne pilene for å se tilstøtende kart.


METAR-TAF: